createdAt,value
2017-11-16T00:31:55.630Z,89.83
2017-11-16T00:34:23.119Z,90.11
2017-11-16T00:36:50.584Z,90.32
2017-11-16T00:39:18.058Z,90.48
2017-11-16T00:41:45.525Z,90.62
2017-11-16T00:44:12.992Z,90.94
2017-11-16T00:46:40.461Z,91.13
2017-11-16T00:49:07.936Z,91.31
2017-11-16T00:51:35.399Z,91.44
2017-11-16T00:54:03.485Z,91.55
2017-11-16T00:56:30.956Z,91.47
2017-11-16T00:58:58.433Z,91.58
2017-11-16T01:01:25.930Z,91.66
2017-11-16T01:03:53.392Z,91.58
2017-11-16T01:06:20.983Z,91.77
2017-11-16T01:08:48.453Z,91.98
2017-11-16T01:11:15.915Z,92.03
2017-11-16T01:16:10.406Z,92.02
2017-11-16T01:18:37.901Z,92.19
2017-11-16T01:21:05.391Z,92.64
2017-11-16T01:23:32.855Z,93.12
2017-11-16T01:26:00.331Z,93.35
2017-11-16T01:28:27.808Z,93.63
2017-11-16T01:30:55.344Z,93.84
2017-11-16T01:33:22.830Z,94.19
2017-11-16T01:35:50.321Z,94.52
2017-11-16T01:38:17.811Z,94.63
2017-11-16T01:40:45.300Z,94.40
2017-11-16T01:43:13.409Z,94.17
2017-11-16T01:45:40.888Z,93.99
2017-11-16T01:48:08.380Z,93.68
2017-11-16T01:50:35.873Z,93.27
2017-11-16T01:53:03.379Z,93.00
2017-11-16T01:55:30.835Z,93.12
2017-11-16T01:57:58.331Z,92.98
2017-11-16T02:00:25.812Z,93.18
2017-11-16T02:02:53.297Z,93.12
2017-11-16T02:05:20.788Z,93.31
2017-11-16T02:07:48.296Z,93.12
2017-11-16T02:10:15.773Z,92.75
2017-11-16T02:12:43.255Z,92.50
2017-11-16T02:15:10.740Z,92.15
2017-11-16T02:17:38.232Z,92.01
2017-11-16T02:20:05.729Z,91.51
2017-11-16T02:22:33.221Z,91.10
2017-11-16T02:25:00.709Z,90.81
2017-11-16T02:27:28.193Z,90.84
2017-11-16T02:29:55.664Z,90.43
2017-11-16T02:32:23.150Z,89.82
2017-11-16T02:34:50.640Z,89.26
2017-11-16T02:37:18.113Z,89.59
2017-11-16T02:39:45.642Z,89.10
2017-11-16T02:42:13.179Z,88.84
2017-11-16T02:44:40.753Z,88.98
2017-11-16T02:47:08.224Z,89.09
2017-11-16T02:49:35.717Z,89.08
2017-11-16T02:52:03.214Z,88.72
2017-11-16T02:54:30.771Z,88.41
2017-11-16T02:56:58.245Z,88.08
2017-11-16T02:59:25.734Z,88.65
2017-11-16T03:01:53.220Z,89.02
2017-11-16T03:04:20.707Z,89.32
2017-11-16T03:06:48.184Z,89.41
2017-11-16T03:09:15.673Z,89.55
2017-11-16T03:11:43.155Z,89.59
2017-11-16T03:14:10.677Z,89.90
2017-11-16T03:16:38.149Z,90.07
2017-11-16T03:19:05.620Z,90.36
2017-11-16T03:21:34.073Z,90.69
2017-11-16T03:24:01.549Z,90.97
2017-11-16T03:26:29.045Z,91.31
2017-11-16T03:28:56.529Z,91.58
2017-11-16T03:31:24.017Z,91.97
2017-11-16T03:33:51.492Z,92.48
2017-11-16T03:36:23.019Z,92.72
2017-11-16T03:38:50.537Z,92.81
2017-11-16T03:41:17.989Z,92.98
2017-11-16T03:43:45.445Z,93.22
2017-11-16T03:46:12.926Z,93.30
2017-11-16T03:48:40.409Z,93.25
2017-11-16T03:51:07.873Z,93.29
2017-11-16T03:53:35.381Z,93.38
2017-11-16T03:56:02.840Z,93.52
2017-11-16T03:58:30.304Z,93.63
2017-11-16T04:00:57.797Z,93.77
2017-11-16T04:03:25.264Z,93.95
2017-11-16T04:05:52.722Z,94.08
2017-11-16T04:08:20.218Z,94.23
2017-11-16T04:10:47.698Z,94.30
2017-11-16T04:13:15.188Z,94.27
2017-11-16T04:15:42.749Z,94.09
2017-11-16T04:18:10.202Z,93.96
2017-11-16T04:20:37.785Z,93.75
2017-11-16T04:23:05.273Z,93.40
2017-11-16T04:25:32.736Z,92.46
2017-11-16T04:28:00.187Z,91.61
2017-11-16T04:30:27.715Z,91.56
2017-11-16T04:32:55.207Z,91.57
2017-11-16T04:35:22.661Z,91.50
2017-11-16T04:37:50.144Z,91.50
2017-11-16T04:40:17.596Z,91.43
2017-11-16T04:42:45.081Z,91.49
2017-11-16T04:45:12.566Z,91.57
2017-11-16T04:47:40.016Z,91.75
2017-11-16T04:50:07.464Z,91.64
2017-11-16T04:52:34.975Z,91.29
2017-11-16T04:55:02.436Z,90.65
2017-11-16T04:57:30.413Z,90.52
2017-11-16T04:59:57.924Z,90.23
2017-11-16T05:02:25.387Z,90.11
2017-11-16T05:04:52.848Z,90.08
2017-11-16T05:07:20.326Z,90.18
2017-11-16T05:09:47.787Z,90.30
2017-11-16T05:12:15.305Z,90.36
2017-11-16T05:14:42.824Z,90.51
2017-11-16T05:17:10.270Z,90.37
2017-11-16T05:19:37.733Z,90.70
2017-11-16T05:22:05.232Z,90.80
2017-11-16T05:24:32.905Z,91.03
2017-11-16T05:27:00.381Z,90.97
2017-11-16T05:29:27.878Z,90.70
2017-11-16T05:31:55.345Z,90.62
2017-11-16T05:34:22.804Z,90.86
2017-11-16T05:36:50.300Z,90.63
2017-11-16T05:39:17.768Z,90.99
2017-11-16T05:41:45.234Z,91.14
2017-11-16T05:44:12.734Z,91.17
2017-11-16T05:46:40.208Z,91.17
2017-11-16T05:49:07.670Z,91.32
2017-11-16T05:51:35.178Z,91.41
2017-11-16T05:54:02.645Z,90.92
2017-11-16T05:56:30.116Z,90.44
2017-11-16T05:58:57.620Z,90.80
2017-11-16T06:01:25.084Z,91.16
2017-11-16T06:03:52.558Z,91.35
2017-11-16T06:06:20.076Z,91.26
2017-11-16T06:08:47.552Z,91.04
2017-11-16T06:11:15.013Z,91.07
2017-11-16T06:13:42.596Z,91.17
2017-11-16T06:16:10.054Z,91.42
2017-11-16T06:18:37.519Z,91.36
2017-11-16T06:21:05.009Z,91.20
2017-11-16T06:23:33.402Z,91.29
2017-11-16T06:26:00.867Z,91.70
2017-11-16T06:28:28.369Z,91.88
2017-11-16T06:30:55.883Z,91.94
2017-11-16T06:33:23.599Z,92.01
2017-11-16T06:35:51.098Z,92.19
2017-11-16T06:38:18.557Z,92.03
2017-11-16T06:40:46.017Z,92.02
2017-11-16T06:43:13.504Z,92.04
2017-11-16T06:45:41.230Z,91.86
2017-11-16T06:48:08.688Z,91.59
2017-11-16T06:50:36.176Z,91.28
2017-11-16T06:53:03.649Z,91.14
2017-11-16T06:55:31.109Z,90.41
2017-11-16T06:57:58.585Z,90.26
2017-11-16T07:00:26.053Z,90.49
2017-11-16T07:02:53.516Z,90.64
2017-11-16T07:05:20.989Z,90.49
2017-11-16T07:07:48.441Z,90.42
2017-11-16T07:10:15.897Z,90.03
2017-11-16T07:12:43.398Z,89.75
2017-11-16T07:15:10.899Z,89.67
2017-11-16T07:17:38.353Z,89.58
2017-11-16T07:20:05.834Z,89.27
2017-11-16T07:22:33.285Z,89.11
2017-11-16T07:25:00.745Z,89.23
2017-11-16T07:27:28.214Z,88.95
2017-11-16T07:29:55.692Z,88.65
2017-11-16T07:32:23.157Z,88.54
2017-11-16T07:34:50.632Z,88.60
2017-11-16T07:37:18.098Z,88.11
2017-11-16T07:39:45.557Z,87.67
2017-11-16T07:42:13.044Z,87.68
2017-11-16T07:44:40.492Z,87.40
2017-11-16T07:47:08.137Z,87.33
2017-11-16T07:49:35.611Z,87.32
2017-11-16T07:52:03.068Z,86.89
2017-11-16T07:54:30.540Z,86.55
2017-11-16T07:56:58.012Z,86.24
2017-11-16T07:59:25.537Z,85.73
2017-11-16T08:01:53.000Z,85.52
2017-11-16T08:04:20.488Z,85.67
2017-11-16T08:06:48.873Z,85.61
2017-11-16T08:09:16.329Z,85.19
2017-11-16T08:11:43.877Z,85.15
2017-11-16T08:14:11.344Z,84.90
2017-11-16T08:16:38.795Z,83.85
2017-11-16T08:19:06.294Z,83.82
2017-11-16T08:21:33.776Z,83.06
2017-11-16T08:24:01.232Z,83.10
2017-11-16T08:26:28.703Z,83.11
2017-11-16T08:28:56.159Z,82.70
2017-11-16T08:31:23.657Z,82.57
2017-11-16T08:33:51.175Z,82.16
2017-11-16T08:36:18.656Z,81.86
2017-11-16T08:38:46.137Z,80.72
2017-11-16T08:41:13.613Z,79.90
2017-11-16T08:43:41.077Z,79.28
2017-11-16T08:46:08.524Z,79.38
2017-11-16T08:48:36.058Z,79.30
2017-11-16T08:51:03.546Z,78.59
2017-11-16T08:53:31.006Z,77.95
2017-11-16T08:55:58.487Z,77.44
2017-11-16T08:58:26.027Z,76.69
2017-11-16T09:00:53.511Z,76.41
2017-11-16T09:03:20.987Z,76.44
2017-11-16T09:05:48.461Z,76.92
2017-11-16T09:08:16.012Z,76.89
2017-11-16T09:10:43.493Z,76.85
2017-11-16T09:13:10.966Z,77.12
2017-11-16T09:15:38.437Z,76.59
2017-11-16T09:18:05.942Z,75.70
2017-11-16T09:20:33.417Z,75.04
2017-11-16T09:23:00.894Z,74.87
2017-11-16T09:25:28.370Z,75.03
2017-11-16T09:27:55.880Z,74.58
2017-11-16T09:30:23.379Z,74.55
2017-11-16T09:32:50.863Z,73.85
2017-11-16T09:35:18.326Z,72.87
2017-11-16T09:37:45.897Z,72.92
2017-11-16T09:40:13.430Z,72.35
2017-11-16T09:42:40.893Z,71.60
2017-11-16T09:45:08.357Z,71.54
2017-11-16T09:47:36.447Z,70.86
2017-11-16T09:50:03.912Z,71.75
2017-11-16T09:52:31.408Z,71.03
2017-11-16T09:54:58.901Z,71.96
2017-11-16T09:57:26.395Z,71.53
2017-11-16T09:59:53.876Z,71.90
2017-11-16T10:02:21.418Z,71.15
2017-11-16T10:04:48.860Z,71.13
2017-11-16T10:07:16.338Z,71.40
2017-11-16T10:09:43.833Z,70.82
2017-11-16T10:12:12.128Z,68.96
2017-11-16T10:14:39.591Z,68.43
2017-11-16T10:17:07.135Z,68.93
2017-11-16T10:19:34.594Z,68.98
2017-11-16T10:22:02.050Z,69.61
2017-11-16T10:24:29.572Z,69.40
2017-11-16T10:26:57.029Z,68.83
2017-11-16T10:29:24.527Z,69.04
2017-11-16T10:31:52.057Z,68.85
2017-11-16T10:34:19.529Z,68.10
2017-11-16T10:36:47.024Z,67.70
2017-11-16T10:39:14.554Z,67.47
2017-11-16T10:41:42.026Z,67.80
2017-11-16T10:44:09.494Z,67.45
2017-11-16T10:46:37.021Z,67.04
2017-11-16T10:49:04.521Z,67.46
2017-11-16T10:51:32.011Z,66.58
2017-11-16T10:53:59.528Z,65.63
2017-11-16T10:56:27.069Z,65.47
2017-11-16T10:58:54.625Z,65.70
2017-11-16T11:01:22.168Z,65.03
2017-11-16T11:03:49.679Z,65.33
2017-11-16T11:06:17.175Z,65.43
2017-11-16T11:08:44.690Z,65.57
2017-11-16T11:11:12.144Z,64.93
2017-11-16T11:13:39.620Z,64.49
2017-11-16T11:16:07.109Z,64.12
2017-11-16T11:18:34.584Z,64.40
2017-11-16T11:21:02.047Z,65.09
2017-11-16T11:23:29.550Z,65.64
2017-11-16T11:25:57.002Z,66.07
2017-11-16T11:28:24.460Z,66.45
2017-11-16T11:30:52.003Z,66.81
2017-11-16T11:33:19.484Z,66.72
2017-11-16T11:35:46.952Z,66.33
2017-11-16T11:38:14.493Z,66.09
2017-11-16T11:40:41.968Z,65.93
2017-11-16T11:43:10.321Z,65.98
2017-11-16T11:45:37.812Z,65.87
2017-11-16T11:48:05.277Z,65.83
2017-11-16T11:50:32.736Z,65.49
2017-11-16T11:53:00.213Z,65.00
2017-11-16T11:55:27.673Z,64.41
2017-11-16T11:57:55.532Z,63.73
2017-11-16T12:00:23.033Z,63.02
2017-11-16T12:02:50.507Z,63.10
2017-11-16T12:05:18.005Z,62.56
2017-11-16T12:07:45.505Z,62.67
2017-11-16T12:10:13.034Z,62.60
2017-11-16T12:12:40.492Z,62.15
2017-11-16T12:15:07.986Z,61.81
2017-11-16T12:17:35.452Z,62.38
2017-11-16T12:20:02.928Z,63.38
2017-11-16T12:22:30.427Z,63.54
2017-11-16T12:24:57.893Z,63.12
2017-11-16T12:27:25.374Z,61.97
2017-11-16T12:29:52.910Z,60.93
2017-11-16T12:32:20.410Z,61.05
2017-11-16T12:34:47.888Z,61.17
2017-11-16T12:37:15.402Z,61.54
2017-11-16T12:39:42.873Z,62.19
2017-11-16T12:42:10.340Z,62.78
2017-11-16T12:44:37.850Z,63.86
2017-11-16T12:47:05.357Z,64.26
2017-11-16T12:49:32.827Z,64.68
2017-11-16T12:52:00.366Z,65.97
2017-11-16T12:54:27.839Z,66.40
2017-11-16T12:56:55.290Z,66.30
2017-11-16T12:59:22.818Z,66.55
2017-11-16T13:01:50.341Z,66.61
2017-11-16T13:04:17.835Z,66.73
2017-11-16T13:06:45.321Z,66.28
2017-11-16T13:09:12.784Z,66.23
2017-11-16T13:11:40.262Z,65.52
2017-11-16T13:14:07.775Z,65.27
2017-11-16T13:16:35.247Z,65.10
2017-11-16T13:19:02.724Z,64.87
2017-11-16T13:21:30.218Z,64.72
2017-11-16T13:23:57.697Z,64.60
2017-11-16T13:26:25.156Z,64.57
2017-11-16T13:28:52.637Z,64.49
2017-11-16T13:31:20.131Z,63.90
2017-11-16T13:33:47.607Z,63.87
2017-11-16T13:36:15.107Z,64.08
2017-11-16T13:38:42.592Z,63.98
2017-11-16T13:41:10.081Z,63.17
2017-11-16T13:43:37.558Z,63.44
2017-11-16T13:46:05.029Z,63.43
2017-11-16T13:48:32.511Z,63.30
2017-11-16T13:50:59.983Z,63.73
2017-11-16T13:53:27.461Z,64.11
2017-11-16T13:55:54.917Z,64.45
2017-11-16T13:58:22.488Z,65.11
2017-11-16T14:00:49.962Z,65.69
2017-11-16T14:03:17.595Z,66.53
2017-11-16T14:05:45.082Z,67.10
2017-11-16T14:08:12.542Z,67.42
2017-11-16T14:10:40.013Z,67.86
2017-11-16T14:13:07.509Z,68.04
2017-11-16T14:15:34.963Z,68.24
2017-11-16T14:18:02.478Z,68.69
2017-11-16T14:20:29.948Z,68.77
2017-11-16T14:22:58.086Z,69.07
2017-11-16T14:25:25.561Z,69.60
2017-11-16T14:27:53.102Z,69.90
2017-11-16T14:30:20.564Z,70.05
2017-11-16T14:32:48.030Z,70.45
2017-11-16T14:35:15.500Z,70.67
2017-11-16T14:37:42.998Z,70.77
2017-11-16T14:40:10.453Z,70.83
2017-11-16T14:42:37.965Z,70.96
2017-11-16T14:45:05.441Z,71.34
2017-11-16T14:47:33.085Z,71.94
2017-11-16T14:50:00.593Z,72.55
2017-11-16T14:52:28.070Z,72.83
2017-11-16T14:54:55.561Z,73.14
2017-11-16T14:57:23.048Z,73.41
2017-11-16T14:59:50.507Z,73.87
2017-11-16T15:02:17.977Z,74.08
2017-11-16T15:04:45.459Z,74.29
2017-11-16T15:07:12.921Z,74.49
2017-11-16T15:09:40.385Z,74.75
2017-11-16T15:12:07.869Z,74.95
2017-11-16T15:14:35.322Z,75.01
2017-11-16T15:17:02.801Z,74.92
2017-11-16T15:19:30.307Z,75.30
2017-11-16T15:21:57.777Z,75.73
2017-11-16T15:24:25.243Z,75.76
2017-11-16T15:26:52.724Z,76.08
2017-11-16T15:29:20.202Z,76.33
2017-11-16T15:31:47.681Z,76.04
2017-11-16T15:34:15.188Z,76.55
2017-11-16T15:36:42.669Z,76.61
2017-11-16T15:39:10.139Z,76.71
2017-11-16T15:41:37.637Z,76.75
2017-11-16T15:44:05.099Z,76.36
2017-11-16T15:46:32.566Z,76.61
2017-11-16T15:49:00.033Z,76.62
2017-11-16T15:51:27.484Z,76.77
2017-11-16T15:53:54.947Z,76.69
2017-11-16T15:56:22.425Z,76.81
2017-11-16T15:58:49.891Z,76.87
2017-11-16T16:01:17.371Z,76.78
2017-11-16T16:03:44.863Z,76.22
2017-11-16T16:06:12.341Z,75.91
2017-11-16T16:08:39.799Z,75.24
2017-11-16T16:11:07.294Z,75.34
2017-11-16T16:13:34.765Z,75.49
2017-11-16T16:16:02.270Z,75.44
2017-11-16T16:18:29.798Z,75.51
2017-11-16T16:20:57.261Z,75.26
2017-11-16T16:23:24.737Z,75.18
2017-11-16T16:25:52.234Z,75.23
2017-11-16T16:28:19.735Z,75.29
2017-11-16T16:30:47.216Z,75.20
2017-11-16T16:33:14.745Z,74.95
2017-11-16T16:35:42.212Z,74.90
2017-11-16T16:38:09.683Z,74.95
2017-11-16T16:40:37.166Z,74.91
2017-11-16T16:43:04.654Z,74.83
2017-11-16T16:45:32.153Z,74.73
2017-11-16T16:47:59.636Z,74.67
2017-11-16T16:50:27.093Z,74.24
2017-11-16T16:52:54.585Z,74.22
2017-11-16T16:55:22.061Z,74.14
2017-11-16T16:57:49.525Z,73.66
2017-11-16T17:00:17.013Z,73.80
2017-11-16T17:02:44.515Z,73.40
2017-11-16T17:05:11.981Z,72.57
2017-11-16T17:07:39.503Z,72.53
2017-11-16T17:10:06.996Z,72.84
2017-11-16T17:12:34.523Z,72.93
2017-11-16T17:15:02.007Z,72.59
2017-11-16T17:17:29.488Z,72.63
2017-11-16T17:19:56.945Z,72.43
2017-11-16T17:22:24.428Z,72.41
2017-11-16T17:24:51.897Z,72.77
2017-11-16T17:27:19.369Z,72.92
2017-11-16T17:29:46.846Z,72.78
2017-11-16T17:32:14.354Z,73.12
2017-11-16T17:34:41.804Z,72.98
2017-11-16T17:37:09.489Z,73.12
2017-11-16T17:39:36.969Z,73.09
2017-11-16T17:42:04.465Z,72.66
2017-11-16T17:44:32.016Z,72.47
2017-11-16T17:46:59.506Z,72.55
2017-11-16T17:49:27.377Z,72.48
2017-11-16T17:51:54.870Z,72.66
2017-11-16T17:54:22.357Z,72.83
2017-11-16T17:56:49.810Z,73.15
2017-11-16T17:59:17.269Z,73.32
2017-11-16T18:01:44.750Z,73.11
2017-11-16T18:04:12.218Z,73.05
2017-11-16T18:06:39.681Z,73.57
2017-11-16T18:09:07.169Z,73.48
2017-11-16T18:11:34.629Z,73.67
2017-11-16T18:14:02.112Z,73.79
2017-11-16T18:16:29.610Z,74.08
2017-11-16T18:18:57.078Z,74.00
2017-11-16T18:21:24.545Z,74.04
2017-11-16T18:23:52.043Z,74.31
2017-11-16T18:26:19.520Z,74.27
2017-11-16T18:28:47.025Z,74.10
2017-11-16T18:31:14.518Z,74.16
2017-11-16T18:33:42.013Z,74.79
2017-11-16T18:36:09.511Z,74.71
2017-11-16T18:38:36.998Z,75.02
2017-11-16T18:41:04.468Z,75.09
2017-11-16T18:43:31.937Z,75.30
2017-11-16T18:45:59.414Z,75.04
2017-11-16T18:48:26.867Z,75.19
2017-11-16T18:50:54.324Z,75.01
2017-11-16T18:53:21.805Z,74.90
2017-11-16T18:55:49.255Z,75.15
2017-11-16T18:58:16.758Z,75.29
2017-11-16T19:00:44.297Z,75.11
2017-11-16T19:03:11.787Z,75.29
2017-11-16T19:05:39.265Z,75.25
2017-11-16T19:08:06.753Z,75.09
2017-11-16T19:10:34.208Z,75.23
2017-11-16T19:13:01.678Z,75.41
2017-11-16T19:15:29.187Z,75.59
2017-11-16T19:17:56.654Z,75.26
2017-11-16T19:20:24.123Z,75.35
2017-11-16T19:22:51.628Z,75.51
2017-11-16T19:25:19.099Z,75.55
2017-11-16T19:27:46.560Z,75.45
2017-11-16T19:30:14.030Z,75.23
2017-11-16T19:32:41.500Z,75.44
2017-11-16T19:35:08.985Z,75.60
2017-11-16T19:37:36.487Z,75.21
2017-11-16T19:40:03.957Z,75.32
2017-11-16T19:42:31.539Z,75.31
2017-11-16T19:44:59.026Z,75.23
2017-11-16T19:47:26.476Z,75.38
2017-11-16T19:49:53.944Z,75.51
2017-11-16T19:52:21.444Z,75.81
2017-11-16T19:54:48.956Z,75.60
2017-11-16T19:57:16.504Z,75.51
2017-11-16T19:59:44.035Z,75.38
2017-11-16T20:02:11.515Z,75.56
2017-11-16T20:04:39.034Z,76.02
2017-11-16T20:07:06.677Z,76.07
2017-11-16T20:09:34.143Z,75.90
2017-11-16T20:12:01.619Z,75.63
2017-11-16T20:14:29.135Z,75.72
2017-11-16T20:16:56.609Z,75.97
2017-11-16T20:19:24.072Z,76.01
2017-11-16T20:21:51.562Z,76.23
2017-11-16T20:24:19.043Z,76.47
2017-11-16T20:26:46.512Z,76.57
2017-11-16T20:29:14.009Z,76.43
2017-11-16T20:31:41.493Z,76.67
2017-11-16T20:34:08.993Z,76.75
2017-11-16T20:36:36.493Z,76.97
2017-11-16T20:39:17.766Z,77.08
2017-11-16T20:41:49.832Z,77.23
2017-11-16T20:44:22.818Z,77.33
2017-11-16T20:46:51.125Z,77.52
2017-11-16T20:49:33.473Z,76.96
2017-11-16T20:52:21.418Z,76.87
2017-11-16T20:54:48.885Z,77.23
2017-11-16T20:57:16.878Z,77.44
2017-11-16T20:59:44.394Z,77.20
2017-11-16T21:02:11.907Z,77.03
2017-11-16T21:04:39.390Z,76.86
2017-11-16T21:07:06.883Z,76.95
2017-11-16T21:09:34.399Z,76.96
2017-11-16T21:12:01.963Z,76.86
2017-11-16T21:14:29.507Z,76.71
2017-11-16T21:16:57.063Z,76.04
2017-11-16T21:19:24.576Z,76.25
2017-11-16T21:21:52.079Z,76.68
2017-11-16T21:24:19.573Z,76.37
2017-11-16T21:26:47.038Z,76.28
2017-11-16T21:29:14.517Z,76.14
2017-11-16T21:31:42.091Z,76.09
2017-11-16T21:34:09.552Z,74.79
2017-11-16T21:36:37.082Z,74.55
2017-11-16T21:39:04.596Z,74.87
2017-11-16T21:41:32.118Z,74.77
2017-11-16T21:43:59.619Z,74.38
2017-11-16T21:46:27.113Z,74.34
2017-11-16T21:48:54.599Z,74.21
2017-11-16T21:51:22.404Z,73.55
2017-11-16T21:53:49.884Z,74.13
2017-11-16T21:56:17.343Z,73.87
2017-11-16T21:58:44.849Z,73.57
2017-11-16T22:01:12.321Z,73.66
2017-11-16T22:03:39.822Z,73.89
2017-11-16T22:06:07.682Z,73.82
2017-11-16T22:08:35.196Z,73.31
2017-11-16T22:11:02.745Z,73.42
2017-11-16T22:13:30.271Z,73.25
2017-11-16T22:15:57.741Z,73.43
2017-11-16T22:18:25.209Z,73.22
2017-11-16T22:20:52.776Z,73.98
2017-11-16T22:23:20.255Z,73.97
2017-11-16T22:25:47.722Z,73.97
2017-11-16T22:28:15.220Z,74.57
2017-11-16T22:30:42.669Z,75.15
2017-11-16T22:33:10.146Z,75.79
2017-11-16T22:35:37.654Z,75.86
2017-11-16T22:38:05.132Z,76.09
2017-11-16T22:40:32.585Z,76.29
2017-11-16T22:43:00.102Z,76.45
2017-11-16T22:45:27.594Z,76.31
2017-11-16T22:47:55.092Z,76.24
2017-11-16T22:50:22.599Z,76.84
2017-11-16T22:52:50.069Z,77.33
2017-11-16T22:55:17.525Z,77.24
2017-11-16T22:57:45.377Z,77.52
2017-11-16T23:00:12.832Z,77.41
2017-11-16T23:02:40.370Z,77.86
2017-11-16T23:05:08.218Z,78.32
2017-11-16T23:07:35.958Z,78.35
2017-11-16T23:10:03.448Z,78.36
2017-11-16T23:12:31.017Z,78.94
2017-11-16T23:14:58.490Z,78.91
2017-11-16T23:17:25.951Z,78.45
2017-11-16T23:19:53.462Z,78.46
2017-11-16T23:22:20.934Z,78.50
2017-11-16T23:24:48.428Z,78.00
2017-11-16T23:27:15.922Z,78.53
2017-11-16T23:29:43.381Z,78.47
2017-11-16T23:32:10.856Z,78.31
2017-11-16T23:34:38.424Z,78.34
2017-11-16T23:37:05.896Z,79.00
2017-11-16T23:39:33.370Z,79.05
2017-11-16T23:42:00.859Z,79.23
2017-11-16T23:44:28.325Z,79.17
2017-11-16T23:46:55.805Z,79.39
2017-11-16T23:49:23.304Z,79.77
2017-11-16T23:51:50.758Z,79.66
2017-11-16T23:54:18.226Z,79.70
2017-11-16T23:56:45.785Z,79.67
2017-11-16T23:59:13.277Z,79.83
